Terminal Aerodrome Forecast
Issued by NWS

Home | Current Version | Previous Version | Graphics & Text | Print | Product List | Glossary On
Versions: 1 2 3 4 5 6 7 8 9 10 11 12 13 14 15 16 17 18 19
804
FTUS43 KBIS 231731
TAFMOT
TAF
KMOT 231731Z 2318/2418 30013KT 6SM BR OVC006
     FM232300 28008KT P6SM OVC015
     FM240500 24006KT 4SM BR BKN015 OVC070
     FM240900 22006KT 2SM BR BKN015 OVC040
     FM241000 22005KT P6SM BKN110
     FM241700 16005KT P6SM BKN070=

USA.gov is the U.S. government's official web portal to all federal, state and local government web resources and services.